Time;durP1;ratioP1;P1;durP2;ratioP2;P2;SDS_P1;SDS_P2;PMS_P1;PMS_P2;Temp;Humidity;BMP_temperature;BMP_pressure;BME280_temperature;BME280_humidity;BME280_pressure;Samples;Min_cycle;Max_cycle;Signal;HPM_P1;HPM_P2
2022/10/18 00:02:10;;;;;;;25.92;9.88;;;13.10;99.90;;;;;;5111902;28;20050;-83
2022/10/18 00:04:36;;;;;;;22.65;9.52;;;13.10;99.90;;;;;;5095758;28;20043;-83
2022/10/18 00:07:03;;;;;;;27.10;9.35;;;13.00;99.90;;;;;;5112215;28;20127;-83
2022/10/18 00:09:30;;;;;;;21.77;8.95;;;13.00;99.90;;;;;;5095353;28;20044;-83
2022/10/18 00:11:57;;;;;;;24.63;10.00;;;13.00;99.90;;;;;;5095224;28;20056;-82
2022/10/18 00:14:24;;;;;;;22.63;8.80;;;12.90;99.90;;;;;;5095392;28;20040;-82
2022/10/18 00:16:50;;;;;;;19.73;9.48;;;12.90;99.90;;;;;;5095206;28;20040;-82
2022/10/18 00:19:17;;;;;;;15.73;8.23;;;12.70;99.90;;;;;;5112308;28;20051;-83
2022/10/18 00:21:44;;;;;;;23.13;9.02;;;12.80;99.90;;;;;;5095134;28;20119;-83
2022/10/18 00:24:11;;;;;;;16.50;8.45;;;12.80;99.90;;;;;;5078646;28;20184;-83
2022/10/18 00:26:37;;;;;;;21.42;8.63;;;12.70;99.90;;;;;;5095460;28;20050;-83
2022/10/18 00:29:05;;;;;;;23.00;8.65;;;12.70;99.90;;;;;;5094954;28;20093;-82
2022/10/18 00:31:36;;;;;;;17.95;7.90;;;12.60;99.90;;;;;;5111808;28;20525;-82
2022/10/18 00:34:06;;;;;;;19.00;8.50;;;12.60;99.90;;;;;;5111331;28;20126;-82
2022/10/18 00:36:34;;;;;;;22.85;8.65;;;12.60;99.90;;;;;;5111130;28;20032;-83
2022/10/18 00:39:02;;;;;;;16.25;7.70;;;12.60;99.90;;;;;;5111542;28;20040;-83
2022/10/18 00:41:32;;;;;;;14.85;7.93;;;12.50;99.90;;;;;;5111476;28;20036;-83
2022/10/18 00:44:04;;;;;;;20.88;8.32;;;12.50;99.90;;;;;;5094518;28;20043;-83
2022/10/18 00:46:34;;;;;;;13.45;7.07;;;12.40;99.90;;;;;;5111221;28;20043;-83
2022/10/18 00:49:10;;;;;;;12.70;6.88;;;12.40;99.90;;;;;;5111516;28;20068;-83
2022/10/18 00:51:55;;;;;;;17.40;7.88;;;12.40;99.90;;;;;;5111288;28;20075;-82
2022/10/18 00:54:22;;;;;;;17.35;7.45;;;12.30;99.90;;;;;;5128500;28;20036;-83
2022/10/18 00:56:49;;;;;;;15.82;7.72;;;12.30;99.90;;;;;;5111542;28;20046;-83
2022/10/18 00:59:17;;;;;;;11.90;6.68;;;12.30;99.90;;;;;;5111186;28;20032;-82
2022/10/18 01:01:45;;;;;;;18.70;7.63;;;12.30;99.90;;;;;;5111088;28;20036;-82
2022/10/18 01:04:14;;;;;;;12.80;7.28;;;12.30;99.90;;;;;;5110653;28;20064;-82
2022/10/18 01:06:58;;;;;;;18.75;7.32;;;12.30;99.90;;;;;;5111027;28;20400;-83
2022/10/18 01:09:38;;;;;;;13.40;7.18;;;12.20;99.90;;;;;;5111160;28;20496;-82
2022/10/18 01:12:20;;;;;;;14.15;7.35;;;12.20;99.90;;;;;;5110569;28;20121;-83
2022/10/18 01:15:10;;;;;;;19.95;7.03;;;12.20;99.90;;;;;;5127790;28;20097;-83
2022/10/18 01:17:55;;;;;;;23.48;7.43;;;12.10;99.90;;;;;;5111054;28;20036;-83
2022/10/18 01:21:26;;;;;;;13.73;6.83;;;12.10;99.90;;;;;;5127367;28;20047;-83
2022/10/18 01:24:20;;;;;;;13.23;7.07;;;12.10;99.90;;;;;;5053089;28;20414;-83
2022/10/18 01:27:14;;;;;;;13.30;6.40;;;12.10;99.90;;;;;;5053088;28;20423;-83
2022/10/18 01:29:59;;;;;;;17.30;7.32;;;12.00;99.90;;;;;;5090424;28;20041;-82
2022/10/18 01:32:31;;;;;;;12.73;6.03;;;12.00;99.90;;;;;;5090474;28;20032;-83
2022/10/18 01:35:06;;;;;;;11.57;6.57;;;12.00;99.90;;;;;;5090849;28;20044;-82
2022/10/18 01:37:34;;;;;;;19.07;7.00;;;11.90;99.90;;;;;;5107111;28;20440;-83
2022/10/18 01:40:07;;;;;;;16.00;7.40;;;11.90;99.90;;;;;;5073811;28;20041;-81
2022/10/18 01:42:34;;;;;;;14.07;7.20;;;11.90;99.90;;;;;;5090361;28;20480;-83
2022/10/18 01:45:03;;;;;;;13.75;6.45;;;11.90;99.90;;;;;;5078792;28;20063;-82
2022/10/18 01:47:30;;;;;;;13.23;7.00;;;11.90;99.90;;;;;;5110019;28;20511;-82
2022/10/18 01:50:04;;;;;;;14.88;6.00;;;11.90;99.90;;;;;;5092844;28;20047;-82
2022/10/18 01:52:30;;;;;;;13.57;6.43;;;11.90;99.90;;;;;;5127135;28;20093;-82
2022/10/18 01:54:59;;;;;;;15.48;6.82;;;11.80;99.90;;;;;;5094075;28;20043;-82
2022/10/18 01:57:44;;;;;;;15.35;6.30;;;11.80;99.90;;;;;;5110032;28;20040;-82
2022/10/18 02:00:21;;;;;;;13.63;6.65;;;11.80;99.90;;;;;;5110149;28;20130;-82
2022/10/18 02:03:07;;;;;;;13.18;6.25;;;11.80;99.90;;;;;;5109864;28;20507;-82
2022/10/18 02:05:48;;;;;;;12.10;6.80;;;11.70;99.90;;;;;;5109767;28;20126;-82
2022/10/18 02:08:32;;;;;;;15.30;6.70;;;11.70;99.90;;;;;;5109805;28;20071;-82
2022/10/18 02:11:14;;;;;;;12.63;6.40;;;11.70;99.90;;;;;;5109663;28;20407;-83
2022/10/18 02:13:43;;;;;;;12.25;6.35;;;11.70;99.90;;;;;;5109860;28;20075;-82
2022/10/18 02:16:24;;;;;;;12.55;6.07;;;11.70;99.90;;;;;;5109246;28;20039;-82
2022/10/18 02:19:14;;;;;;;22.65;6.78;;;11.60;99.90;;;;;;5109657;28;20039;-82
2022/10/18 02:21:43;;;;;;;11.73;6.35;;;11.60;99.90;;;;;;5109722;28;20079;-83
2022/10/18 02:24:12;;;;;;;13.77;6.38;;;11.60;99.90;;;;;;5092825;28;20028;-82
2022/10/18 02:26:39;;;;;;;19.63;7.25;;;11.60;99.90;;;;;;5109492;28;20040;-82
2022/10/18 02:29:07;;;;;;;12.50;6.25;;;11.50;99.90;;;;;;5109649;28;20377;-82
2022/10/18 02:31:41;;;;;;;16.05;6.20;;;11.50;99.90;;;;;;5109622;28;20039;-82
2022/10/18 02:34:15;;;;;;;15.65;6.70;;;11.50;99.90;;;;;;5126249;28;20040;-82
2022/10/18 02:36:46;;;;;;;12.18;6.20;;;11.50;99.90;;;;;;5109955;28;20123;-82
2022/10/18 02:39:19;;;;;;;14.23;6.65;;;11.50;99.90;;;;;;5125861;28;20492;-82
2022/10/18 02:41:49;;;;;;;11.43;6.07;;;11.50;99.90;;;;;;5109721;28;20098;-83
2022/10/18 02:44:15;;;;;;;14.32;6.30;;;11.50;99.90;;;;;;5092513;28;20501;-83
2022/10/18 02:46:42;;;;;;;16.88;6.40;;;11.90;99.90;;;;;;5092882;28;20127;-83
2022/10/18 02:49:09;;;;;;;12.02;6.88;;;11.50;99.90;;;;;;5092638;28;20032;-83
2022/10/18 02:51:36;;;;;;;13.90;6.80;;;11.40;99.90;;;;;;5092080;28;20039;-83
2022/10/18 02:54:03;;;;;;;15.70;7.15;;;11.50;99.90;;;;;;5092703;28;20044;-83
2022/10/18 02:56:30;;;;;;;15.48;7.13;;;11.50;99.90;;;;;;5108896;28;20122;-83
2022/10/18 02:58:56;;;;;;;17.30;7.65;;;11.50;99.90;;;;;;5092372;28;20539;-82
2022/10/18 03:01:23;;;;;;;16.83;7.45;;;11.50;99.90;;;;;;5108416;28;20047;-82
2022/10/18 03:03:50;;;;;;;14.32;6.95;;;11.50;99.90;;;;;;5092445;28;20539;-82
2022/10/18 03:06:17;;;;;;;14.05;6.47;;;11.50;99.90;;;;;;5092349;28;20508;-82
2022/10/18 03:08:44;;;;;;;13.25;6.60;;;11.50;99.90;;;;;;5075597;28;20040;-82
2022/10/18 03:11:11;;;;;;;17.00;6.43;;;11.50;99.90;;;;;;5092150;28;20048;-82
2022/10/18 03:13:37;;;;;;;13.02;5.65;;;11.50;99.90;;;;;;5092141;28;20510;-82
2022/10/18 03:16:04;;;;;;;23.40;7.30;;;11.50;99.90;;;;;;5076123;28;20067;-82
2022/10/18 03:18:31;;;;;;;14.43;7.53;;;11.50;99.90;;;;;;5092476;28;20036;-82
2022/10/18 03:20:57;;;;;;;14.10;6.63;;;11.50;99.90;;;;;;5092355;28;20051;-82
2022/10/18 03:23:24;;;;;;;18.60;5.65;;;11.50;99.90;;;;;;5075699;28;20400;-82
2022/10/18 03:25:51;;;;;;;19.10;7.38;;;11.50;99.90;;;;;;5075834;28;20036;-82
2022/10/18 03:28:18;;;;;;;22.15;6.60;;;11.60;99.90;;;;;;5075532;28;20507;-83
2022/10/18 03:30:44;;;;;;;18.20;6.30;;;11.60;99.90;;;;;;5075938;28;20033;-83
2022/10/18 03:33:12;;;;;;;37.30;6.70;;;11.60;99.90;;;;;;5092561;28;20036;-82
2022/10/18 03:35:38;;;;;;;18.05;6.63;;;11.60;99.90;;;;;;5108933;28;20036;-83
2022/10/18 03:38:05;;;;;;;17.92;5.95;;;11.60;99.90;;;;;;5092328;28;20128;-83
2022/10/18 03:40:32;;;;;;;29.33;6.35;;;11.70;99.90;;;;;;5108324;28;20028;-82
2022/10/18 03:42:59;;;;;;;21.48;7.10;;;11.70;99.90;;;;;;5092232;28;20177;-83
2022/10/18 03:45:25;;;;;;;30.33;6.97;;;11.70;99.90;;;;;;5091928;28;20032;-83
2022/10/18 03:47:52;;;;;;;37.22;6.85;;;11.80;99.90;;;;;;5092142;28;20492;-83
2022/10/18 03:50:19;;;;;;;48.53;7.07;;;11.80;99.90;;;;;;5108774;28;20423;-82
2022/10/18 03:52:45;;;;;;;51.28;6.85;;;11.80;99.90;;;;;;5108619;28;20078;-83
2022/10/18 03:55:12;;;;;;;34.88;6.43;;;11.90;99.90;;;;;;5092200;28;20043;-83
2022/10/18 03:57:39;;;;;;;32.20;6.90;;;12.00;99.90;;;;;;5108537;28;20042;-82
2022/10/18 04:00:06;;;;;;;41.15;7.32;;;12.00;99.90;;;;;;5092019;28;20488;-83
2022/10/18 04:02:33;;;;;;;43.67;6.78;;;12.00;99.90;;;;;;5108439;28;20046;-82
2022/10/18 04:05:00;;;;;;;30.08;6.93;;;12.10;99.90;;;;;;5075743;28;20551;-82
2022/10/18 04:07:26;;;;;;;34.85;6.85;;;12.10;99.90;;;;;;5075076;28;20040;-82
2022/10/18 04:09:53;;;;;;;28.58;6.22;;;12.10;99.90;;;;;;5091975;28;20484;-82
2022/10/18 04:12:19;;;;;;;18.50;6.47;;;12.10;99.90;;;;;;5089758;28;20049;-83
2022/10/18 04:14:46;;;;;;;18.65;5.95;;;12.10;99.90;;;;;;5075212;28;20044;-82
2022/10/18 04:17:13;;;;;;;25.20;6.53;;;12.10;99.90;;;;;;5075360;28;20075;-82
2022/10/18 04:19:40;;;;;;;55.70;7.80;;;12.10;99.90;;;;;;5074950;28;20048;-82
2022/10/18 04:22:08;;;;;;;13.95;6.18;;;12.00;99.90;;;;;;5058907;28;20412;-83
2022/10/18 04:24:34;;;;;;;31.95;6.97;;;12.00;99.90;;;;;;5110964;28;20522;-83
2022/10/18 04:27:01;;;;;;;41.25;6.63;;;12.10;99.90;;;;;;5095067;28;20075;-82
2022/10/18 04:29:28;;;;;;;18.75;6.40;;;12.00;99.90;;;;;;5094527;28;20044;-83
2022/10/18 04:31:54;;;;;;;27.58;6.65;;;12.00;99.90;;;;;;5111792;28;20040;-83
2022/10/18 04:34:21;;;;;;;36.45;6.50;;;12.00;99.90;;;;;;5091545;28;20557;-82
2022/10/18 04:36:48;;;;;;;53.72;7.53;;;12.00;99.90;;;;;;5091445;28;20381;-83
2022/10/18 04:39:15;;;;;;;42.92;7.15;;;12.00;99.90;;;;;;5091586;28;20490;-83
2022/10/18 04:41:42;;;;;;;16.98;6.35;;;12.00;99.90;;;;;;5074869;28;20139;-82
2022/10/18 04:44:08;;;;;;;41.88;7.13;;;12.00;99.90;;;;;;5075211;28;20090;-82
2022/10/18 04:46:35;;;;;;;33.22;6.78;;;12.10;99.90;;;;;;5074617;28;20044;-82
2022/10/18 04:49:02;;;;;;;20.40;6.55;;;12.00;99.90;;;;;;5075174;28;20033;-83
2022/10/18 04:51:29;;;;;;;15.32;6.22;;;12.00;99.90;;;;;;5091243;28;20124;-82
2022/10/18 04:53:56;;;;;;;18.63;6.13;;;12.00;99.90;;;;;;5092370;28;20178;-82
2022/10/18 04:56:23;;;;;;;24.55;6.38;;;11.90;99.90;;;;;;5111481;28;20047;-82
2022/10/18 04:58:49;;;;;;;16.50;6.40;;;11.90;99.90;;;;;;5094397;28;20036;-83
2022/10/18 05:01:17;;;;;;;17.88;5.72;;;11.90;99.90;;;;;;5077954;28;20047;-83
2022/10/18 05:03:44;;;;;;;20.52;6.25;;;11.90;99.90;;;;;;5094486;28;20488;-82
2022/10/18 05:06:11;;;;;;;19.80;6.50;;;11.90;99.90;;;;;;5078617;28;20040;-83
2022/10/18 05:08:37;;;;;;;20.90;6.13;;;11.90;99.90;;;;;;5094144;28;20514;-83
2022/10/18 05:11:04;;;;;;;14.68;5.82;;;11.90;99.90;;;;;;5094440;28;20514;-83
2022/10/18 05:13:31;;;;;;;22.35;6.30;;;11.90;99.90;;;;;;5111349;28;20040;-83
2022/10/18 05:15:59;;;;;;;17.98;6.43;;;11.90;99.90;;;;;;5099449;28;20040;-83
2022/10/18 05:18:26;;;;;;;25.60;6.07;;;11.90;99.90;;;;;;5111731;28;20036;-83
2022/10/18 05:20:52;;;;;;;16.85;5.82;;;11.90;99.90;;;;;;5094087;28;20385;-83
2022/10/18 05:23:19;;;;;;;17.25;5.88;;;12.00;99.90;;;;;;5127581;28;20093;-83
2022/10/18 05:25:46;;;;;;;24.15;5.88;;;11.90;99.90;;;;;;5110600;28;20043;-82
2022/10/18 05:28:13;;;;;;;17.25;5.88;;;11.90;99.90;;;;;;5094413;28;20051;-83
2022/10/18 05:30:40;;;;;;;18.27;6.60;;;11.90;99.90;;;;;;5110624;28;20485;-83
2022/10/18 05:33:07;;;;;;;11.77;6.20;;;11.90;99.90;;;;;;5127859;28;20089;-83
2022/10/18 05:35:35;;;;;;;22.25;6.10;;;11.90;99.90;;;;;;5094049;28;20123;-83
2022/10/18 05:38:04;;;;;;;40.55;6.15;;;11.90;99.90;;;;;;5127385;28;20075;-82
2022/10/18 05:40:32;;;;;;;31.88;5.65;;;11.90;99.90;;;;;;5110597;28;20866;-83
2022/10/18 05:42:59;;;;;;;29.13;5.88;;;11.80;99.90;;;;;;5093627;28;20044;-82
2022/10/18 05:45:25;;;;;;;26.27;5.90;;;11.80;99.90;;;;;;5094017;28;20035;-83
2022/10/18 05:47:53;;;;;;;46.05;6.18;;;11.80;99.90;;;;;;5081812;28;20101;-83
2022/10/18 05:50:20;;;;;;;17.23;5.63;;;11.80;99.90;;;;;;5089917;28;20041;-83
2022/10/18 05:52:47;;;;;;;32.80;5.90;;;11.80;99.90;;;;;;5073328;28;20511;-83
2022/10/18 05:55:14;;;;;;;39.47;6.57;;;11.80;99.90;;;;;;5057157;28;20043;-83
2022/10/18 05:57:40;;;;;;;43.78;6.13;;;11.80;99.90;;;;;;5076277;28;20040;-82
2022/10/18 06:00:08;;;;;;;21.58;6.00;;;11.80;99.90;;;;;;5093598;28;20048;-83
2022/10/18 06:02:34;;;;;;;36.95;5.75;;;11.80;99.90;;;;;;5109968;28;20043;-83
2022/10/18 06:05:01;;;;;;;49.53;5.75;;;11.70;99.90;;;;;;5092710;28;20465;-83
2022/10/18 06:07:28;;;;;;;54.83;5.60;;;11.70;99.90;;;;;;5076427;28;20044;-83
2022/10/18 06:09:54;;;;;;;34.08;5.72;;;11.70;99.90;;;;;;5126064;28;20032;-83
2022/10/18 06:12:21;;;;;;;21.60;4.90;;;11.60;99.90;;;;;;5076204;28;20051;-82
2022/10/18 06:14:48;;;;;;;37.95;6.05;;;11.60;99.90;;;;;;5109044;28;20506;-83
2022/10/18 06:17:15;;;;;;;40.28;4.63;;;11.60;99.90;;;;;;5092621;28;20481;-83
2022/10/18 06:19:43;;;;;;;41.80;4.50;;;11.60;99.90;;;;;;5075936;28;20040;-83
2022/10/18 06:22:10;;;;;;;40.85;5.40;;;11.60;99.90;;;;;;5109568;28;20043;-83
2022/10/18 06:24:37;;;;;;;18.52;5.07;;;11.50;99.90;;;;;;5109749;28;20040;-83
2022/10/18 06:27:10;;;;;;;33.85;4.90;;;11.60;99.90;;;;;;5076055;28;20044;-83
2022/10/18 06:29:38;;;;;;;41.30;5.18;;;11.50;99.90;;;;;;5109740;28;20046;-84
2022/10/18 06:32:05;;;;;;;17.15;5.07;;;11.50;99.90;;;;;;5109473;28;20039;-83
2022/10/18 06:34:33;;;;;;;41.60;5.75;;;11.50;99.90;;;;;;5095620;28;20120;-83
2022/10/18 06:37:00;;;;;;;20.00;5.03;;;11.50;99.90;;;;;;5079654;28;20507;-83
2022/10/18 06:39:28;;;;;;;18.17;4.60;;;11.50;99.90;;;;;;5109427;28;20075;-83
2022/10/18 06:41:55;;;;;;;15.65;5.10;;;11.50;99.90;;;;;;5092565;28;20408;-83
2022/10/18 06:44:21;;;;;;;10.30;5.03;;;11.50;99.90;;;;;;5109192;28;20040;-83
2022/10/18 06:46:48;;;;;;;33.75;5.47;;;11.60;99.90;;;;;;5084551;28;20488;-83
2022/10/18 06:49:15;;;;;;;13.73;5.05;;;11.60;99.90;;;;;;5105401;28;20032;-83
2022/10/18 06:51:43;;;;;;;17.50;4.55;;;11.60;99.90;;;;;;5075653;28;20059;-83
2022/10/18 06:54:13;;;;;;;37.25;5.15;;;11.50;99.90;;;;;;5069849;28;20047;-83
2022/10/18 06:56:40;;;;;;;36.72;5.20;;;11.60;99.90;;;;;;5083214;28;20082;-83
2022/10/18 06:59:07;;;;;;;42.65;5.50;;;11.60;99.90;;;;;;5055744;28;20495;-83
2022/10/18 07:01:34;;;;;;;7.20;3.90;;;11.60;99.90;;;;;;5090777;28;20039;-83
2022/10/18 07:04:00;;;;;;;36.33;4.90;;;11.50;99.90;;;;;;5070075;28;20036;-83
2022/10/18 07:06:27;;;;;;;11.25;4.20;;;11.50;99.90;;;;;;5109033;28;20471;-83
2022/10/18 07:08:54;;;;;;;13.55;4.88;;;11.50;99.90;;;;;;5125902;28;20047;-83
2022/10/18 07:11:24;;;;;;;14.70;4.35;;;11.60;99.90;;;;;;5108863;28;20056;-84
2022/10/18 07:13:59;;;;;;;10.43;3.95;;;11.60;99.90;;;;;;5108923;28;20047;-83
2022/10/18 07:16:26;;;;;;;13.33;4.10;;;11.50;99.90;;;;;;5093468;28;20038;-83
2022/10/18 07:18:52;;;;;;;23.67;4.18;;;11.60;99.90;;;;;;5090909;28;20369;-83
2022/10/18 07:21:21;;;;;;;20.50;4.43;;;11.50;99.90;;;;;;5075644;28;20062;-83
2022/10/18 07:23:49;;;;;;;32.00;4.57;;;11.50;99.90;;;;;;5109185;28;20132;-84
2022/10/18 07:26:25;;;;;;;20.38;4.13;;;11.50;99.90;;;;;;5108486;28;20036;-83
2022/10/18 07:29:00;;;;;;;15.38;4.38;;;11.50;99.90;;;;;;5108715;28;20045;-83
2022/10/18 07:31:27;;;;;;;29.13;4.22;;;11.50;99.90;;;;;;5103448;28;20063;-85
2022/10/18 07:33:54;;;;;;;13.75;3.97;;;11.50;99.90;;;;;;5100202;28;20114;-85
2022/10/18 07:36:21;;;;;;;13.48;4.15;;;11.50;99.90;;;;;;5100692;28;20115;-84
2022/10/18 07:38:48;;;;;;;15.20;3.72;;;11.50;99.90;;;;;;5108899;28;20047;-85
2022/10/18 07:41:15;;;;;;;20.50;3.67;;;11.60;99.90;;;;;;5092284;28;20376;-84
2022/10/18 07:43:44;;;;;;;18.40;4.03;;;11.60;99.90;;;;;;5075426;28;20055;-84
2022/10/18 07:46:12;;;;;;;10.98;4.10;;;11.60;99.90;;;;;;5109251;28;20040;-84
2022/10/18 07:48:39;;;;;;;10.73;4.07;;;11.60;99.90;;;;;;5095800;28;20173;-84
2022/10/18 07:51:06;;;;;;;10.63;4.13;;;11.60;99.90;;;;;;5078874;28;20127;-84
2022/10/18 07:53:33;;;;;;;7.72;3.70;;;11.50;99.90;;;;;;5129203;28;20508;-84
2022/10/18 07:56:02;;;;;;;22.85;4.78;;;11.60;99.90;;;;;;5112471;28;20036;-84
2022/10/18 07:58:31;;;;;;;11.25;3.25;;;11.70;99.90;;;;;;5112819;28;20036;-84
2022/10/18 08:01:04;;;;;;;23.80;4.50;;;11.60;99.90;;;;;;5112440;28;20772;-83
2022/10/18 08:03:32;;;;;;;8.48;4.00;;;11.60;99.90;;;;;;5129470;28;20040;-83
2022/10/18 08:05:59;;;;;;;9.73;3.75;;;11.50;99.90;;;;;;5112439;28;20885;-84
2022/10/18 08:08:26;;;;;;;11.88;3.67;;;11.60;99.90;;;;;;5129132;28;20165;-84
2022/10/18 08:10:53;;;;;;;12.98;4.25;;;11.60;99.90;;;;;;5095291;28;20056;-84
2022/10/18 08:13:21;;;;;;;23.23;5.30;;;11.60;99.90;;;;;;5128761;28;20059;-84
2022/10/18 08:15:47;;;;;;;14.82;4.40;;;11.80;99.90;;;;;;5095659;28;20451;-84
2022/10/18 08:18:14;;;;;;;12.90;4.35;;;11.80;99.90;;;;;;5111918;28;20040;-83
2022/10/18 08:20:45;;;;;;;11.13;4.47;;;11.80;99.90;;;;;;5112437;28;20045;-83
2022/10/18 08:23:11;;;;;;;8.52;4.05;;;11.80;99.90;;;;;;5091379;28;20068;-84
2022/10/18 08:25:38;;;;;;;12.63;4.80;;;11.80;99.90;;;;;;5075291;28;20092;-84
2022/10/18 08:28:05;;;;;;;11.65;4.40;;;11.90;99.90;;;;;;5074895;28;20416;-83
2022/10/18 08:30:34;;;;;;;9.27;4.75;;;11.90;99.90;;;;;;5091944;28;20090;-84
2022/10/18 08:33:01;;;;;;;11.18;4.10;;;11.80;99.90;;;;;;5100205;28;20036;-84
2022/10/18 08:35:28;;;;;;;10.52;4.55;;;11.90;99.90;;;;;;5128329;28;20047;-84
2022/10/18 08:37:55;;;;;;;11.52;4.80;;;11.90;99.90;;;;;;5111754;28;20036;-83
2022/10/18 08:40:22;;;;;;;9.68;4.28;;;11.90;99.90;;;;;;5128319;28;20089;-84
2022/10/18 08:43:00;;;;;;;10.60;4.47;;;12.00;99.90;;;;;;5095000;28;20079;-84
2022/10/18 08:45:28;;;;;;;9.98;4.45;;;12.10;99.90;;;;;;5111189;28;20598;-84
2022/10/18 08:47:56;;;;;;;11.10;4.25;;;12.20;99.90;;;;;;5094701;28;20051;-84
2022/10/18 08:50:30;;;;;;;10.23;4.38;;;12.20;99.90;;;;;;5111006;28;20560;-84
2022/10/18 08:53:21;;;;;;;10.80;4.57;;;12.30;99.90;;;;;;5111527;28;20841;-83
2022/10/18 08:56:03;;;;;;;11.13;4.88;;;12.30;99.90;;;;;;5128696;28;20051;-84
2022/10/18 08:58:32;;;;;;;10.70;4.38;;;12.40;99.90;;;;;;5110477;28;20086;-83
2022/10/18 09:01:20;;;;;;;10.68;4.40;;;12.40;99.90;;;;;;5111239;28;20040;-84
2022/10/18 09:04:16;;;;;;;9.77;4.43;;;12.50;99.90;;;;;;5111717;28;20054;-83
2022/10/18 09:06:42;;;;;;;8.32;3.88;;;12.50;99.90;;;;;;5093179;28;20090;-84
2022/10/18 09:09:34;;;;;;;13.48;3.65;;;12.60;99.90;;;;;;5117125;28;20078;-84
2022/10/18 09:12:15;;;;;;;8.38;3.20;;;12.70;99.90;;;;;;5127543;28;20070;-84
2022/10/18 09:15:10;;;;;;;10.98;3.88;;;12.80;99.90;;;;;;5110878;28;20481;-84
2022/10/18 09:18:01;;;;;;;6.78;2.97;;;12.90;99.90;;;;;;5110978;28;20042;-83
2022/10/18 09:20:52;;;;;;;10.43;3.65;;;13.00;99.90;;;;;;5127728;28;20040;-83
2022/10/18 09:23:25;;;;;;;12.82;3.33;;;13.00;99.90;;;;;;5127574;28;20145;-83
2022/10/18 09:26:10;;;;;;;11.85;3.28;;;13.10;99.90;;;;;;5110743;28;20036;-83
2022/10/18 09:28:58;;;;;;;9.63;2.90;;;13.00;99.90;;;;;;5110913;28;20396;-83
2022/10/18 09:31:39;;;;;;;8.77;3.00;;;13.20;99.90;;;;;;5110344;28;20496;-83
2022/10/18 09:34:44;;;;;;;7.22;2.92;;;13.20;99.90;;;;;;5127173;28;20042;-83
2022/10/18 09:37:17;;;;;;;7.93;3.05;;;13.30;99.90;;;;;;5127643;28;20144;-83
2022/10/18 09:39:47;;;;;;;8.88;2.78;;;13.30;99.90;;;;;;5110392;28;20043;-83
2022/10/18 09:42:30;;;;;;;7.80;3.45;;;13.40;99.90;;;;;;5110499;28;20040;-83
2022/10/18 09:45:01;;;;;;;9.00;2.95;;;13.40;99.90;;;;;;5110614;28;20040;-83
2022/10/18 09:47:44;;;;;;;9.50;2.80;;;13.50;99.90;;;;;;5110121;28;20051;-83
2022/10/18 09:50:25;;;;;;;9.38;2.63;;;13.60;99.90;;;;;;5110197;28;20040;-83
2022/10/18 09:53:35;;;;;;;10.65;2.95;;;13.70;99.90;;;;;;5110294;28;20397;-83
2022/10/18 09:56:17;;;;;;;8.05;2.30;;;13.80;99.90;;;;;;5108115;28;20147;-82
2022/10/18 09:58:50;;;;;;;5.63;2.22;;;13.90;99.90;;;;;;5110147;28;20500;-83
2022/10/18 10:01:28;;;;;;;10.98;2.10;;;13.90;99.90;;;;;;5110054;28;20050;-83
2022/10/18 10:03:55;;;;;;;7.00;1.70;;;14.00;99.90;;;;;;5110503;28;20036;-83
2022/10/18 10:06:30;;;;;;;9.57;2.38;;;14.10;99.90;;;;;;5110010;28;20058;-83
2022/10/18 10:09:17;;;;;;;13.57;2.15;;;14.20;99.90;;;;;;5126171;28;20385;-83
2022/10/18 10:11:47;;;;;;;8.80;1.60;;;14.30;99.90;;;;;;5109235;28;20054;-83
2022/10/18 10:14:26;;;;;;;10.85;1.77;;;14.30;99.90;;;;;;5109981;28;20040;-83
2022/10/18 10:16:54;;;;;;;8.75;1.50;;;14.40;99.90;;;;;;5109940;28;20082;-83
2022/10/18 10:19:36;;;;;;;6.22;1.50;;;14.40;99.90;;;;;;5109172;28;20040;-83
2022/10/18 10:22:09;;;;;;;6.25;1.33;;;14.40;99.90;;;;;;5109750;28;20035;-83
2022/10/18 10:24:53;;;;;;;9.13;1.35;;;14.50;99.90;;;;;;5109462;28;20408;-83
2022/10/18 10:27:29;;;;;;;7.70;1.35;;;14.60;99.90;;;;;;5109195;28;20071;-83
2022/10/18 10:29:58;;;;;;;7.82;1.40;;;14.60;99.90;;;;;;5109710;28;20036;-83
2022/10/18 10:32:42;;;;;;;7.85;1.20;;;14.70;99.90;;;;;;5109301;28;20040;-83
2022/10/18 10:35:34;;;;;;;9.02;1.20;;;14.70;99.90;;;;;;5109730;28;20082;-83
2022/10/18 10:38:01;;;;;;;5.05;1.58;;;14.70;99.90;;;;;;5109378;28;20054;-83
2022/10/18 10:40:51;;;;;;;9.13;1.38;;;14.70;99.90;;;;;;5088959;28;20036;-83
2022/10/18 10:43:34;;;;;;;3.47;1.10;;;14.70;99.90;;;;;;5106052;28;20504;-83
2022/10/18 10:46:07;;;;;;;7.15;1.92;;;14.80;99.90;;;;;;5106103;28;20137;-83
2022/10/18 10:48:50;;;;;;;4.47;1.13;;;14.80;99.90;;;;;;5089029;28;20411;-83
2022/10/18 10:51:52;;;;;;;10.30;2.03;;;14.60;99.90;;;;;;5102144;28;20047;-83
2022/10/18 10:54:23;;;;;;;8.95;1.35;;;14.60;99.90;;;;;;5099517;28;20139;-83
2022/10/18 10:57:09;;;;;;;9.18;0.93;;;14.70;99.90;;;;;;5105686;28;20044;-83
2022/10/18 10:59:51;;;;;;;6.20;0.80;;;14.70;99.90;;;;;;5088956;28;20068;-84
2022/10/18 11:02:31;;;;;;;4.65;1.42;;;14.80;99.90;;;;;;5089227;28;20084;-84
2022/10/18 11:05:25;;;;;;;4.68;1.20;;;14.90;99.90;;;;;;5089254;28;20048;-83
2022/10/18 11:08:00;;;;;;;11.98;1.35;;;14.90;99.90;;;;;;5105558;28;20048;-84
2022/10/18 11:10:38;;;;;;;10.20;1.20;;;15.00;99.90;;;;;;5088988;28;20066;-83
2022/10/18 11:13:26;;;;;;;8.43;1.58;;;15.00;99.90;;;;;;5105780;28;20040;-84
2022/10/18 11:15:59;;;;;;;10.63;1.10;;;14.90;99.90;;;;;;5089116;28;20047;-83
2022/10/18 11:18:36;;;;;;;5.15;1.27;;;14.90;99.90;;;;;;5105602;28;20033;-83
2022/10/18 11:21:16;;;;;;;8.00;1.35;;;15.00;99.90;;;;;;5089871;28;20083;-83
2022/10/18 11:23:44;;;;;;;5.97;1.33;;;15.00;99.90;;;;;;5112835;28;20075;-83
2022/10/18 11:26:24;;;;;;;5.47;1.08;;;15.00;99.90;;;;;;5096762;28;20040;-84
2022/10/18 11:29:00;;;;;;;4.18;0.90;;;15.00;99.90;;;;;;5112810;28;20047;-83
2022/10/18 11:31:51;;;;;;;9.15;1.20;;;14.90;99.90;;;;;;5112846;28;20515;-83
2022/10/18 11:34:51;;;;;;;9.45;1.25;;;14.90;99.90;;;;;;5113324;28;20062;-83
2022/10/18 11:37:44;;;;;;;6.40;1.10;;;14.90;99.90;;;;;;5112958;28;20052;-83
2022/10/18 11:40:20;;;;;;;5.90;1.30;;;15.00;99.90;;;;;;5113463;28;20071;-83
2022/10/18 11:43:10;;;;;;;5.25;0.65;;;15.10;99.90;;;;;;5112637;28;20047;-83
2022/10/18 11:45:58;;;;;;;5.53;0.90;;;15.20;99.90;;;;;;5112869;28;20044;-83
2022/10/18 11:48:43;;;;;;;10.07;1.13;;;15.20;99.90;;;;;;5129158;28;20079;-83
2022/10/18 11:51:31;;;;;;;6.10;1.30;;;15.00;99.90;;;;;;5112614;28;20043;-84
2022/10/18 11:54:15;;;;;;;8.35;1.17;;;15.00;99.90;;;;;;5129238;28;20044;-83
2022/10/18 11:57:06;;;;;;;6.45;0.82;;;15.00;99.90;;;;;;5112324;28;20089;-83
2022/10/18 11:59:41;;;;;;;7.85;1.10;;;15.20;99.90;;;;;;5112171;28;20040;-83
2022/10/18 12:02:17;;;;;;;;;;;15.40;99.90;;;;;;5112746;28;20050;-83
2022/10/18 12:04:50;;;;;;;3.47;0.70;;;15.40;99.90;;;;;;5112218;28;19916;-83
2022/10/18 12:07:20;;;;;;;8.73;1.13;;;15.30;99.90;;;;;;5112623;28;20810;-83
2022/10/18 12:09:50;;;;;;;5.20;0.77;;;15.30;99.90;;;;;;5112367;28;20448;-83
2022/10/18 12:12:24;;;;;;;7.78;1.00;;;15.20;99.90;;;;;;5112038;28;20055;-83
2022/10/18 12:15:04;;;;;;;3.92;0.80;;;15.20;99.90;;;;;;5111956;28;20043;-83
2022/10/18 12:17:40;;;;;;;11.25;1.33;;;15.30;99.90;;;;;;5128794;28;20036;-82
2022/10/18 12:20:18;;;;;;;6.05;1.02;;;15.40;99.90;;;;;;5112318;28;20044;-83
2022/10/18 12:22:51;;;;;;;7.65;1.17;;;15.60;99.90;;;;;;5111565;28;20036;-83
2022/10/18 12:25:18;;;;;;;5.20;1.00;;;15.70;99.90;;;;;;5111749;28;20035;-83
2022/10/18 12:28:26;;;;;;;6.15;1.48;;;15.80;99.90;;;;;;5094691;28;20101;-83
2022/10/18 12:30:57;;;;;;;4.75;1.08;;;15.70;99.90;;;;;;5111172;28;20523;-84
2022/10/18 12:33:29;;;;;;;4.28;0.93;;;15.40;99.90;;;;;;5110883;28;20036;-84
2022/10/18 12:36:31;;;;;;;7.25;1.02;;;15.30;99.90;;;;;;5128409;28;20040;-83
2022/10/18 12:39:02;;;;;;;3.95;0.95;;;15.20;99.90;;;;;;5111465;28;20062;-83
2022/10/18 12:41:31;;;;;;;5.45;0.80;;;15.20;99.90;;;;;;5128548;28;20642;-83
2022/10/18 12:44:03;;;;;;;7.35;0.80;;;15.30;99.90;;;;;;5111242;28;20135;-83
2022/10/18 12:46:47;;;;;;;6.25;1.02;;;15.30;99.90;;;;;;5111595;28;20044;-83
2022/10/18 12:49:22;;;;;;;2.05;0.88;;;15.40;99.90;;;;;;5111526;28;20078;-83
2022/10/18 12:51:59;;;;;;;3.70;0.80;;;15.50;99.90;;;;;;5111101;28;20057;-83
2022/10/18 12:54:34;;;;;;;7.78;0.85;;;15.50;99.90;;;;;;5111740;28;20044;-82
2022/10/18 12:57:04;;;;;;;2.83;0.82;;;15.60;99.90;;;;;;5094365;28;20032;-83
2022/10/18 12:59:30;;;;;;;7.13;0.80;;;15.60;99.90;;;;;;5111235;28;20119;-83
2022/10/18 13:02:00;;;;;;;7.25;1.20;;;15.60;99.90;;;;;;5110694;28;20177;-84
2022/10/18 13:04:26;;;;;;;5.40;0.80;;;15.60;99.90;;;;;;5111033;28;20072;-83
2022/10/18 13:06:56;;;;;;;4.47;0.73;;;15.70;99.90;;;;;;5111094;28;20507;-83
2022/10/18 13:09:34;;;;;;;5.45;0.95;;;15.70;99.90;;;;;;5110934;28;20042;-83